Time;durP1;ratioP1;P1;durP2;ratioP2;P2;SDS_P1;SDS_P2;PMS_P1;PMS_P2;Temp;Humidity;BMP_temperature;BMP_pressure;BME280_temperature;BME280_humidity;BME280_pressure;Samples;Min_cycle;Max_cycle;Signal;HPM_P1;HPM_P2
2022/12/28 00:01:08;;;;;;;7.70;5.90;;;9.50;99.90;;;;;;5063398;28;20024;-54
2022/12/28 00:03:34;;;;;;;6.80;4.57;;;9.50;99.90;;;;;;5067181;28;20411;-54
2022/12/28 00:06:02;;;;;;;5.72;3.83;;;9.50;99.90;;;;;;5070545;28;20040;-55
2022/12/28 00:08:27;;;;;;;7.47;4.50;;;9.50;99.90;;;;;;5070593;28;20044;-53
2022/12/28 00:10:59;;;;;;;7.70;4.60;;;9.50;99.90;;;;;;5070610;28;20032;-54
2022/12/28 00:13:25;;;;;;;8.05;4.63;;;9.40;99.90;;;;;;5070328;28;20040;-55
2022/12/28 00:15:50;;;;;;;7.38;4.22;;;9.40;99.90;;;;;;5070540;28;20035;-52
2022/12/28 00:18:16;;;;;;;8.23;5.30;;;9.30;99.90;;;;;;5070487;28;20549;-55
2022/12/28 00:20:42;;;;;;;10.65;6.75;;;9.30;99.90;;;;;;5037021;28;20119;-55
2022/12/28 00:23:07;;;;;;;9.50;5.82;;;9.20;99.90;;;;;;5069734;28;20040;-53
2022/12/28 00:25:35;;;;;;;14.38;9.18;;;9.30;99.90;;;;;;5040028;28;20089;-53
2022/12/28 00:28:01;;;;;;;22.17;13.38;;;9.20;99.90;;;;;;5090132;28;20460;-54
2022/12/28 00:30:26;;;;;;;28.45;16.75;;;9.10;99.90;;;;;;5107454;28;20032;-55
2022/12/28 00:32:52;;;;;;;203.80;109.75;;;8.90;99.90;;;;;;5094247;28;20028;-54
2022/12/28 00:35:18;;;;;;;47.45;25.63;;;8.80;99.90;;;;;;5111090;28;20031;-55
2022/12/28 00:37:43;;;;;;;30.50;15.98;;;8.70;99.90;;;;;;5071988;28;20071;-55
2022/12/28 00:40:09;;;;;;;71.30;33.25;;;8.70;99.90;;;;;;5010522;28;20031;-55
2022/12/28 00:42:35;;;;;;;76.68;36.08;;;8.70;99.90;;;;;;5112683;28;20024;-53
2022/12/28 00:45:01;;;;;;;124.47;59.72;;;8.70;99.90;;;;;;5112848;28;20034;-54
2022/12/28 00:47:26;;;;;;;113.93;50.72;;;8.80;99.90;;;;;;5113035;28;20073;-53
2022/12/28 00:49:52;;;;;;;34.10;18.75;;;8.50;99.90;;;;;;5077174;28;20359;-54
2022/12/28 00:52:18;;;;;;;24.65;16.25;;;8.30;99.90;;;;;;5115576;28;20098;-56
2022/12/28 00:54:44;;;;;;;25.10;16.35;;;8.30;99.90;;;;;;5119848;27;20564;-55
2022/12/28 00:57:10;;;;;;;15.50;9.63;;;8.30;99.90;;;;;;5117948;27;20525;-56
2022/12/28 00:59:35;;;;;;;15.50;9.18;;;8.20;99.90;;;;;;5115284;27;20028;-53
2022/12/28 01:02:01;;;;;;;7.22;4.80;;;8.20;99.90;;;;;;5094562;27;20150;-53
2022/12/28 01:04:27;;;;;;;7.70;4.82;;;7.50;99.90;;;;;;5127599;27;20047;-53
2022/12/28 01:06:52;;;;;;;10.63;6.15;;;7.10;99.90;;;;;;5118496;27;20027;-54
2022/12/28 01:09:18;;;;;;;12.63;6.00;;;6.90;99.90;;;;;;5108044;28;20036;-56
2022/12/28 01:11:45;;;;;;;10.60;6.80;;;6.90;99.90;;;;;;5111579;27;20102;-53
2022/12/28 01:14:10;;;;;;;10.75;7.55;;;6.80;99.90;;;;;;5116211;28;20094;-56
2022/12/28 01:16:36;;;;;;;29.92;16.98;;;6.80;99.90;;;;;;5116382;28;20065;-55
2022/12/28 01:19:05;;;;;;;25.75;16.70;;;7.20;99.90;;;;;;5116215;28;20028;-55
2022/12/28 01:21:33;;;;;;;59.53;35.85;;;7.40;99.90;;;;;;5116120;28;20077;-55
2022/12/28 01:24:01;;;;;;;40.67;22.42;;;7.50;99.90;;;;;;5115870;28;20474;-55
2022/12/28 01:26:27;;;;;;;42.45;23.30;;;7.70;99.90;;;;;;5116164;28;20028;-53
2022/12/28 01:28:54;;;;;;;39.83;21.98;;;7.90;99.90;;;;;;5080237;28;20118;-54
2022/12/28 01:31:20;;;;;;;34.13;19.17;;;8.00;99.90;;;;;;5116183;28;20055;-54
2022/12/28 01:33:47;;;;;;;33.13;16.55;;;;;;;;;;5096795;28;20123;-53
2022/12/28 01:36:21;;;;;;;36.00;20.02;;;8.00;99.90;;;;;;5115861;28;20094;-55
2022/12/28 01:38:48;;;;;;;18.45;12.15;;;;;;;;;;5115716;28;20439;-55
2022/12/28 01:41:16;;;;;;;16.65;10.52;;;7.50;99.90;;;;;;5115830;28;20031;-54
2022/12/28 01:43:51;;;;;;;12.35;8.68;;;7.30;99.90;;;;;;5052338;28;20045;-55
2022/12/28 01:46:35;;;;;;;10.00;7.05;;;7.40;99.90;;;;;;5052653;28;20044;-53
2022/12/28 01:49:16;;;;;;;11.70;7.97;;;7.30;99.90;;;;;;5052670;28;20083;-54
2022/12/28 01:51:52;;;;;;;13.10;8.05;;;7.30;99.90;;;;;;5052787;28;20064;-53
2022/12/28 01:54:20;;;;;;;12.13;8.23;;;7.40;99.90;;;;;;5052621;28;20098;-55
2022/12/28 01:56:47;;;;;;;14.48;9.13;;;7.60;99.90;;;;;;5052129;28;20531;-54
2022/12/28 01:59:15;;;;;;;10.98;7.50;;;7.50;99.90;;;;;;5052627;28;20091;-53
2022/12/28 02:01:41;;;;;;;8.73;6.25;;;7.30;99.90;;;;;;5052468;28;20090;-55
2022/12/28 02:04:06;;;;;;;9.57;6.65;;;7.30;99.90;;;;;;5052199;28;20041;-53
2022/12/28 02:06:32;;;;;;;10.40;7.18;;;7.10;99.90;;;;;;5052465;28;20106;-52
2022/12/28 02:08:58;;;;;;;11.75;8.10;;;7.10;99.90;;;;;;5052268;28;20033;-56
2022/12/28 02:11:23;;;;;;;11.48;7.47;;;6.80;99.90;;;;;;5052414;28;20234;-52
2022/12/28 02:13:50;;;;;;;10.77;6.78;;;;;;;;;;5060500;28;20043;-53
2022/12/28 02:16:16;;;;;;;11.52;7.30;;;;;;;;;;5114982;28;20116;-54
2022/12/28 02:18:44;;;;;;;10.70;7.25;;;;;;;;;;5115093;28;20106;-53
2022/12/28 02:21:33;;;;;;;11.90;7.38;;;;;;;;;;5114780;28;20028;-54
2022/12/28 02:23:59;;;;;;;12.10;7.38;;;;;;;;;;5012219;28;20494;-54
2022/12/28 02:26:43;;;;;;;30.75;12.40;;;6.90;99.90;;;;;;5012405;28;20046;-54
2022/12/28 02:29:34;;;;;;;41.65;17.65;;;7.10;99.90;;;;;;5011966;28;20121;-53
2022/12/28 02:32:17;;;;;;;32.33;15.20;;;7.30;99.90;;;;;;5011850;28;20488;-53
2022/12/28 02:35:07;;;;;;;60.70;27.83;;;7.50;99.90;;;;;;5012207;28;20075;-55
2022/12/28 02:37:50;;;;;;;30.70;14.05;;;7.60;99.90;;;;;;5012109;28;20034;-53
2022/12/28 02:40:19;;;;;;;14.05;8.15;;;7.70;99.90;;;;;;5012037;28;20037;-54
2022/12/28 02:42:46;;;;;;;12.48;7.97;;;7.60;99.90;;;;;;5011902;28;20063;-55
2022/12/28 02:51:30;;;;;;;12.48;8.25;;;6.80;99.90;;;;;;5012214;28;20544;-53
2022/12/28 02:57:36;;;;;;;12.07;8.02;;;6.40;99.90;;;;;;5011887;28;20575;-54
2022/12/28 03:00:09;;;;;;;11.90;8.18;;;6.30;99.90;;;;;;5022018;28;20034;-54
2022/12/28 03:02:56;;;;;;;14.80;9.18;;;6.60;99.90;;;;;;5114172;28;20027;-54
2022/12/28 03:08:26;;;;;;;13.70;8.90;;;6.30;99.90;;;;;;5113923;28;20042;-55
2022/12/28 03:11:09;;;;;;;12.40;8.98;;;6.30;99.90;;;;;;5114262;28;20039;-55
2022/12/28 03:14:02;;;;;;;12.48;8.30;;;6.60;99.90;;;;;;5113490;28;20027;-53
2022/12/28 03:25:41;;;;;;;14.15;9.23;;;6.60;99.90;;;;;;5110701;28;20023;-55
2022/12/28 03:33:16;;;;;;;15.25;8.98;;;7.10;99.90;;;;;;5114610;28;20043;-54
2022/12/28 03:36:00;;;;;;;19.70;12.98;;;6.80;99.90;;;;;;5095325;28;20382;-53
2022/12/28 03:38:37;;;;;;;22.42;13.63;;;6.60;99.90;;;;;;5113391;28;20039;-54
2022/12/28 03:41:11;;;;;;;37.13;24.00;;;6.50;99.90;;;;;;5113641;28;20038;-55
2022/12/28 03:43:47;;;;;;;38.88;23.98;;;6.50;99.90;;;;;;5113286;28;20492;-53
2022/12/28 03:46:15;;;;;;;32.72;20.40;;;6.60;99.90;;;;;;5113690;28;20020;-53
2022/12/28 03:48:42;;;;;;;27.40;17.15;;;6.60;99.90;;;;;;5060995;28;20092;-53
2022/12/28 03:51:10;;;;;;;25.25;14.93;;;6.60;99.90;;;;;;5077799;28;20039;-53
2022/12/28 03:53:42;;;;;;;22.55;15.02;;;6.60;99.90;;;;;;5094725;28;20530;-53
2022/12/28 03:56:13;;;;;;;26.75;16.40;;;6.70;99.90;;;;;;5095413;28;20027;-56
2022/12/28 03:58:40;;;;;;;23.80;16.27;;;6.90;99.90;;;;;;5074644;28;20039;-55
2022/12/28 04:01:06;;;;;;;24.48;15.70;;;7.00;99.90;;;;;;5060820;28;20114;-53
2022/12/28 04:03:32;;;;;;;24.17;14.35;;;7.00;99.90;;;;;;5113367;28;20047;-53
2022/12/28 04:05:58;;;;;;;20.10;13.43;;;6.90;99.90;;;;;;5113286;28;20027;-55
2022/12/28 04:08:25;;;;;;;28.08;15.50;;;6.90;99.90;;;;;;5113653;28;20068;-52
2022/12/28 04:10:50;;;;;;;22.05;13.98;;;7.00;99.90;;;;;;5113266;28;20034;-52
2022/12/28 04:13:16;;;;;;;20.40;12.90;;;6.90;99.90;;;;;;5113198;28;20028;-54
2022/12/28 04:15:42;;;;;;;22.95;13.35;;;6.90;99.90;;;;;;5113078;28;20460;-58
2022/12/28 04:18:08;;;;;;;19.83;11.90;;;6.80;99.90;;;;;;5095028;28;20024;-52
2022/12/28 04:20:33;;;;;;;16.92;12.23;;;6.70;99.90;;;;;;5113046;28;20028;-54
2022/12/28 04:22:59;;;;;;;16.65;11.93;;;6.80;99.90;;;;;;5113253;28;20096;-56
2022/12/28 04:25:25;;;;;;;26.58;16.27;;;6.60;99.90;;;;;;5114329;28;20036;-53
2022/12/28 04:27:51;;;;;;;23.85;15.18;;;6.40;99.90;;;;;;5117177;28;20027;-55
2022/12/28 04:30:17;;;;;;;18.58;11.13;;;6.50;99.90;;;;;;5117196;28;20027;-54
2022/12/28 04:32:42;;;;;;;12.23;7.97;;;6.50;99.90;;;;;;5117173;28;20386;-56
2022/12/28 04:35:08;;;;;;;13.98;8.63;;;6.10;99.90;;;;;;5117201;28;20020;-55
2022/12/28 04:37:37;;;;;;;15.13;9.80;;;;;;;;;;5116980;28;20028;-54
2022/12/28 04:40:03;;;;;;;11.90;8.68;;;5.60;99.90;;;;;;5116805;28;20055;-54
2022/12/28 04:42:29;;;;;;;13.20;8.52;;;5.60;99.90;;;;;;5047564;28;20040;-54
2022/12/28 04:44:55;;;;;;;13.10;8.10;;;5.50;99.90;;;;;;5116763;28;20042;-55
2022/12/28 04:47:20;;;;;;;13.27;9.10;;;5.40;99.90;;;;;;5116823;28;20088;-56
2022/12/28 04:49:46;;;;;;;18.30;13.32;;;5.40;99.90;;;;;;5117153;28;20068;-53
2022/12/28 04:52:12;;;;;;;14.68;10.00;;;5.40;99.90;;;;;;5116934;28;20019;-54
2022/12/28 04:54:38;;;;;;;15.80;10.95;;;5.50;99.90;;;;;;5116242;28;20059;-56
2022/12/28 04:57:04;;;;;;;15.90;10.50;;;5.50;99.90;;;;;;5116535;28;20027;-56
2022/12/28 04:59:29;;;;;;;27.63;13.57;;;5.70;99.90;;;;;;5064004;28;20040;-56
2022/12/28 05:01:55;;;;;;;48.35;21.27;;;5.80;99.90;;;;;;5116358;28;20032;-54
2022/12/28 05:04:21;;;;;;;30.70;15.55;;;5.90;99.90;;;;;;5080823;28;20105;-56
2022/12/28 05:06:46;;;;;;;22.55;12.07;;;6.10;99.90;;;;;;5116338;28;20027;-56
2022/12/28 05:09:12;;;;;;;13.25;9.73;;;6.10;99.90;;;;;;5116657;28;20024;-55
2022/12/28 05:11:38;;;;;;;16.63;9.48;;;5.90;99.90;;;;;;5116457;28;20023;-56
2022/12/28 05:14:04;;;;;;;58.78;30.25;;;5.80;99.90;;;;;;5116265;28;20059;-56
2022/12/28 05:16:30;;;;;;;18.83;11.00;;;5.90;99.90;;;;;;5116573;28;20028;-53
2022/12/28 05:18:56;;;;;;;13.00;8.30;;;5.60;99.90;;;;;;5115975;28;20036;-55
2022/12/28 05:21:25;;;;;;;15.13;8.90;;;5.20;99.90;;;;;;5115650;28;20032;-56
2022/12/28 05:23:51;;;;;;;13.25;9.10;;;4.70;99.90;;;;;;5062763;28;20048;-56
2022/12/28 05:26:19;;;;;;;16.02;11.43;;;;;;;;;;5114225;27;20436;-53
2022/12/28 05:28:45;;;;;;;19.63;12.10;;;4.60;99.90;;;;;;5115350;28;20019;-54
2022/12/28 05:31:14;;;;;;;18.60;12.63;;;4.50;99.90;;;;;;5115770;28;20374;-55
2022/12/28 05:33:40;;;;;;;14.35;9.88;;;;;;;;;;5116211;28;20024;-53
2022/12/28 05:36:11;;;;;;;14.30;9.70;;;4.20;99.90;;;;;;5115611;28;20100;-55
2022/12/28 05:38:36;;;;;;;14.85;9.60;;;4.20;99.90;;;;;;5115861;28;20019;-53
2022/12/28 05:41:08;;;;;;;13.13;9.57;;;4.50;99.90;;;;;;5114005;27;20114;-56
2022/12/28 05:43:34;;;;;;;11.80;8.07;;;4.70;99.90;;;;;;5126208;27;20127;-56
2022/12/28 05:46:10;;;;;;;12.32;7.47;;;4.80;99.90;;;;;;5120521;27;20033;-54
2022/12/28 05:48:38;;;;;;;10.60;7.30;;;4.80;99.90;;;;;;5103843;28;20488;-53
2022/12/28 05:51:06;;;;;;;9.75;6.70;;;;;;;;;;5115772;27;20061;-55
2022/12/28 05:53:32;;;;;;;9.90;7.38;;;;;;;;;;5114761;28;20039;-54
2022/12/28 05:56:02;;;;;;;11.18;7.85;;;;;;;;;;5114220;28;20463;-55
2022/12/28 05:58:28;;;;;;;13.30;8.55;;;5.00;99.90;;;;;;5114597;28;20031;-53
2022/12/28 06:01:01;;;;;;;10.95;7.43;;;5.00;99.90;;;;;;5114435;28;20050;-53
2022/12/28 06:03:27;;;;;;;12.93;8.98;;;4.90;99.90;;;;;;5079310;28;20043;-55
2022/12/28 06:05:53;;;;;;;12.98;9.02;;;4.70;99.90;;;;;;5076585;28;20433;-53
2022/12/28 06:08:18;;;;;;;12.05;7.85;;;4.90;99.90;;;;;;5078879;28;20032;-52
2022/12/28 06:10:44;;;;;;;16.33;10.27;;;4.80;99.90;;;;;;5078932;28;20066;-54
2022/12/28 06:13:10;;;;;;;18.13;9.93;;;4.90;99.90;;;;;;5115069;28;20024;-55
2022/12/28 06:15:35;;;;;;;19.92;12.63;;;4.80;99.90;;;;;;5115152;28;20479;-53
2022/12/28 06:18:01;;;;;;;20.33;11.90;;;4.80;99.90;;;;;;5115368;27;20015;-56
2022/12/28 06:20:27;;;;;;;18.67;11.98;;;4.60;99.90;;;;;;5070972;27;20039;-55
2022/12/28 06:22:52;;;;;;;19.67;10.48;;;4.40;99.90;;;;;;5125546;27;20051;-54
2022/12/28 06:25:18;;;;;;;16.92;9.50;;;4.20;99.90;;;;;;5125020;27;20028;-51
2022/12/28 06:27:44;;;;;;;15.45;9.55;;;4.00;99.90;;;;;;5120282;27;20574;-55
2022/12/28 06:30:11;;;;;;;13.35;10.13;;;4.00;99.90;;;;;;5125103;27;20019;-62
2022/12/28 06:32:36;;;;;;;12.95;8.90;;;4.20;99.90;;;;;;5114917;28;20055;-60
2022/12/28 06:35:02;;;;;;;11.63;8.38;;;4.30;99.90;;;;;;5114502;28;20055;-59
2022/12/28 06:37:28;;;;;;;11.15;7.30;;;4.50;99.90;;;;;;5103534;27;20028;-58
2022/12/28 06:39:54;;;;;;;13.48;8.43;;;4.30;99.90;;;;;;5094594;28;20043;-58
2022/12/28 06:42:19;;;;;;;13.77;8.05;;;4.10;99.90;;;;;;5058529;28;20089;-58
2022/12/28 06:44:45;;;;;;;13.63;7.20;;;3.90;99.90;;;;;;5058688;28;20117;-59
2022/12/28 06:47:11;;;;;;;14.65;8.88;;;3.90;99.90;;;;;;5094050;28;20024;-59
2022/12/28 06:49:36;;;;;;;11.13;8.63;;;4.10;99.90;;;;;;5093947;28;20031;-63
2022/12/28 06:52:02;;;;;;;10.70;7.72;;;4.40;99.90;;;;;;5058537;28;20123;-58
2022/12/28 06:54:28;;;;;;;11.02;7.88;;;5.10;99.90;;;;;;5058380;28;20058;-60
2022/12/28 06:56:54;;;;;;;12.55;9.88;;;;;;;;;;5093910;28;20020;-60
2022/12/28 06:59:20;;;;;;;13.05;9.32;;;;;;;;;;5094401;28;20020;-59
2022/12/28 07:01:46;;;;;;;16.80;10.55;;;;;;;;;;5094031;28;20032;-58
2022/12/28 07:04:12;;;;;;;16.60;11.07;;;6.50;99.90;;;;;;5093758;28;20028;-61
2022/12/28 07:06:40;;;;;;;15.43;10.25;;;;;;;;;;5093972;28;20028;-59
2022/12/28 07:09:09;;;;;;;21.90;12.93;;;6.40;99.90;;;;;;5093607;28;20060;-58
2022/12/28 07:11:35;;;;;;;37.03;25.15;;;6.50;99.90;;;;;;5091467;28;20043;-59
2022/12/28 07:14:02;;;;;;;29.38;20.90;;;6.50;99.90;;;;;;5093709;28;20072;-61
2022/12/28 07:16:28;;;;;;;29.98;19.92;;;6.40;99.90;;;;;;5093737;28;20024;-62
2022/12/28 07:18:55;;;;;;;26.20;16.35;;;6.40;99.90;;;;;;5093866;28;20066;-58
2022/12/28 07:21:24;;;;;;;16.15;11.98;;;5.90;99.90;;;;;;5094075;28;20024;-62
2022/12/28 07:23:51;;;;;;;22.90;14.30;;;5.80;99.90;;;;;;5093533;28;20039;-64
2022/12/28 07:26:24;;;;;;;18.35;14.00;;;6.00;99.90;;;;;;5093448;28;20028;-61
2022/12/28 07:28:52;;;;;;;23.55;16.67;;;6.20;99.90;;;;;;5074778;28;20036;-62
2022/12/28 07:31:21;;;;;;;30.77;19.75;;;6.70;99.90;;;;;;5090388;28;20394;-57
2022/12/28 07:33:49;;;;;;;20.92;14.75;;;7.50;99.90;;;;;;5093623;28;20030;-61
2022/12/28 07:36:17;;;;;;;20.05;14.27;;;8.30;99.90;;;;;;5069366;28;20043;-60
2022/12/28 07:38:43;;;;;;;32.05;22.10;;;9.30;99.90;;;;;;5061043;28;20043;-61
2022/12/28 07:41:10;;;;;;;34.70;23.30;;;8.90;99.90;;;;;;5036987;28;20050;-62
2022/12/28 07:43:37;;;;;;;35.10;22.92;;;9.00;99.90;;;;;;5060181;28;20044;-58
2022/12/28 07:46:06;;;;;;;31.65;20.67;;;11.40;99.90;;;;;;5044742;28;20080;-65
2022/12/28 07:48:34;;;;;;;28.80;20.77;;;11.70;99.90;;;;;;5039413;28;20494;-59
2022/12/28 07:51:09;;;;;;;25.27;17.65;;;12.50;99.90;;;;;;5040158;28;20044;-61
2022/12/28 07:53:36;;;;;;;18.58;13.85;;;13.00;99.90;;;;;;5040312;28;20435;-62
2022/12/28 07:56:02;;;;;;;32.30;16.48;;;13.00;99.90;;;;;;5044074;28;20125;-63
2022/12/28 07:58:28;;;;;;;38.42;19.83;;;12.80;99.90;;;;;;5008888;28;20091;-66
2022/12/28 08:00:54;;;;;;;22.48;13.73;;;13.10;99.90;;;;;;5045566;28;20037;-64
2022/12/28 08:03:20;;;;;;;17.42;11.63;;;;;;;;;;5013459;28;20056;-64
2022/12/28 08:05:46;;;;;;;17.05;14.55;;;;;;;;;;5030738;28;20126;-62
2022/12/28 08:08:12;;;;;;;20.98;15.57;;;;;;;;;;5050351;28;20036;-61
2022/12/28 08:10:38;;;;;;;25.77;19.27;;;;;;;;;;5064084;28;20480;-64
2022/12/28 08:13:04;;;;;;;27.35;21.73;;;;;;;;;;5065176;28;20085;-62
2022/12/28 08:15:30;;;;;;;27.20;21.83;;;20.80;94.40;;;;;;5064807;28;20075;-59
2022/12/28 08:17:57;;;;;;;31.23;24.13;;;;;;;;;;5088106;28;20064;-62
2022/12/28 08:20:22;;;;;;;30.17;23.17;;;20.60;99.90;;;;;;5106084;28;20485;-60
2022/12/28 08:22:48;;;;;;;24.08;19.42;;;;;;;;;;5104276;28;20106;-59
2022/12/28 08:25:14;;;;;;;24.00;19.52;;;;;;;;;;5092079;28;20130;-59
2022/12/28 08:27:41;;;;;;;18.73;16.83;;;;;;;;;;5088654;28;20048;-60
2022/12/28 08:30:08;;;;;;;19.10;15.85;;;19.90;88.70;;;;;;5107311;28;20531;-61
2022/12/28 08:32:34;;;;;;;16.67;14.77;;;19.80;89.00;;;;;;5108940;28;20111;-62
2022/12/28 08:35:00;;;;;;;18.35;16.50;;;;;;;;;;5073305;28;20122;-61
2022/12/28 08:37:26;;;;;;;18.77;16.83;;;;;;;;;;5105282;28;20035;-58
2022/12/28 08:39:52;;;;;;;18.50;16.60;;;;;;;;;;5073875;28;20119;-58
2022/12/28 08:42:18;;;;;;;18.52;16.23;;;19.50;89.80;;;;;;5077552;28;20040;-61
2022/12/28 08:44:43;;;;;;;16.63;15.05;;;20.20;88.70;;;;;;5105502;28;20036;-61
2022/12/28 08:47:10;;;;;;;17.35;15.70;;;;;;;;;;5073210;28;20028;-62
2022/12/28 08:49:36;;;;;;;17.02;15.23;;;;;;;;;;5105534;28;20040;-58
2022/12/28 08:52:02;;;;;;;18.58;14.45;;;;;;;;;;5112491;28;20020;-58
2022/12/28 08:54:28;;;;;;;17.13;15.43;;;;;;;;;;5067694;28;20044;-56
2022/12/28 08:56:54;;;;;;;16.58;14.57;;;20.60;85.10;;;;;;5106151;28;20024;-62
2022/12/28 08:59:19;;;;;;;15.32;13.75;;;20.00;86.60;;;;;;5109947;28;20027;-61
2022/12/28 09:01:46;;;;;;;16.50;13.25;;;;;;;;;;5106004;28;20024;-65
2022/12/28 09:04:14;;;;;;;18.73;15.70;;;;;;;;;;5098923;28;20427;-62
2022/12/28 09:06:40;;;;;;;16.83;15.02;;;21.10;98.20;;;;;;5105171;28;20024;-61
2022/12/28 09:09:07;;;;;;;16.90;15.05;;;;;;;;;;5104727;28;20036;-60
2022/12/28 09:11:34;;;;;;;16.23;14.57;;;22.30;83.60;;;;;;5104360;28;20024;-61
2022/12/28 09:14:01;;;;;;;17.33;15.48;;;;;;;;;;5070259;28;20084;-55
2022/12/28 09:16:27;;;;;;;14.98;13.55;;;22.90;85.10;;;;;;5100476;28;20028;-51
2022/12/28 09:18:57;;;;;;;19.02;17.17;;;;;;;;;;5106947;28;20035;-60
2022/12/28 09:21:24;;;;;;;16.17;14.68;;;;;;;;;;5103578;28;20032;-56
2022/12/28 09:23:50;;;;;;;16.65;14.95;;;23.10;99.90;;;;;;5100910;28;20039;-60
2022/12/28 09:26:17;;;;;;;18.05;16.55;;;;;;;;;;5112317;28;20032;-59
2022/12/28 09:28:48;;;;;;;19.05;17.13;;;17.90;82.70;;;;;;5102078;28;20037;-55
2022/12/28 09:31:15;;;;;;;17.00;15.43;;;19.00;84.10;;;;;;5102567;28;20124;-59
2022/12/28 09:34:00;;;;;;;18.33;15.68;;;19.10;84.00;;;;;;5074672;28;20044;-57
2022/12/28 09:36:32;;;;;;;25.35;23.13;;;19.80;83.00;;;;;;5106065;28;20058;-58
2022/12/28 09:38:59;;;;;;;28.02;24.90;;;;;;;;;;5104719;28;20388;-57
2022/12/28 09:41:29;;;;;;;19.17;16.88;;;18.10;84.90;;;;;;5107637;28;20471;-59
2022/12/28 09:44:34;;;;;;;24.15;21.98;;;18.40;85.10;;;;;;5105394;28;20079;-59
2022/12/28 09:47:02;;;;;;;22.73;20.33;;;;;;;;;;5100226;28;20070;-56
2022/12/28 09:49:54;;;;;;;18.77;16.80;;;;;;;;;;5012044;28;20041;-62
2022/12/28 09:52:31;;;;;;;17.42;15.63;;;19.70;97.00;;;;;;5012299;28;20069;-57
2022/12/28 09:55:09;;;;;;;16.75;15.15;;;19.70;82.90;;;;;;5047420;28;20085;-57
2022/12/28 09:57:37;;;;;;;18.58;16.95;;;;;;;;;;5043746;28;20030;-60
2022/12/28 10:00:05;;;;;;;20.50;18.60;;;20.50;83.90;;;;;;4998113;28;20506;-60
2022/12/28 10:02:32;;;;;;;17.85;15.00;;;;;;;;;;4961876;28;20048;-58
2022/12/28 10:04:58;;;;;;;17.40;15.80;;;20.00;91.90;;;;;;5005106;28;20159;-60
2022/12/28 10:07:24;;;;;;;39.70;35.38;;;;;;;;;;4994624;28;20533;-62
2022/12/28 10:09:51;;;;;;;17.45;15.65;;;;;;;;;;4996247;28;20037;-58
2022/12/28 10:12:19;;;;;;;16.58;12.20;;;;;;;;;;5000707;28;20046;-60
2022/12/28 10:14:46;;;;;;;12.18;10.95;;;21.40;80.80;;;;;;4994089;28;20049;-56
2022/12/28 10:17:15;;;;;;;16.05;10.90;;;21.10;78.60;;;;;;4994669;28;20561;-58
2022/12/28 10:19:45;;;;;;;14.45;10.45;;;21.00;78.90;;;;;;4998713;28;20067;-59
2022/12/28 10:22:14;;;;;;;10.80;9.70;;;;;;;;;;5034186;28;20037;-64
2022/12/28 10:24:41;;;;;;;12.10;10.35;;;21.20;79.00;;;;;;5034639;28;20025;-60
2022/12/28 10:27:23;;;;;;;13.35;11.43;;;21.40;78.00;;;;;;5033213;28;20108;-58
2022/12/28 10:29:53;;;;;;;11.80;10.60;;;;;;;;;;5023534;28;20068;-56
2022/12/28 10:32:19;;;;;;;12.68;11.23;;;20.20;81.40;;;;;;5103114;28;21389;-59
2022/12/28 10:35:03;;;;;;;14.90;11.52;;;19.90;79.30;;;;;;5099950;28;20031;-57
2022/12/28 10:37:30;;;;;;;12.80;11.32;;;;;;;;;;5106755;28;20031;-57
2022/12/28 10:40:16;;;;;;;16.40;10.73;;;20.80;78.40;;;;;;5102982;28;20035;-54
2022/12/28 10:42:45;;;;;;;13.77;12.32;;;21.00;78.70;;;;;;5103893;28;20023;-56
2022/12/28 10:45:23;;;;;;;12.77;10.70;;;20.90;78.60;;;;;;5098138;28;20054;-61
2022/12/28 10:47:52;;;;;;;23.55;13.95;;;21.40;78.60;;;;;;5065814;28;20070;-57
2022/12/28 10:50:40;;;;;;;14.65;11.30;;;21.90;79.20;;;;;;5104930;28;20038;-56
2022/12/28 10:53:16;;;;;;;13.98;9.73;;;;;;;;;;5101057;28;20039;-53
2022/12/28 10:55:42;;;;;;;11.38;9.35;;;22.10;89.10;;;;;;5099722;28;20028;-59
2022/12/28 10:58:27;;;;;;;13.30;8.48;;;21.70;77.40;;;;;;5106729;28;20475;-55
2022/12/28 11:00:55;;;;;;;14.27;10.02;;;21.50;76.70;;;;;;5048447;28;20047;-57
2022/12/28 11:03:34;;;;;;;13.63;9.80;;;21.30;77.20;;;;;;5105224;28;20099;-61
2022/12/28 11:06:16;;;;;;;13.10;10.43;;;21.40;79.00;;;;;;5104673;28;20452;-58
2022/12/28 11:08:42;;;;;;;;;;;21.30;77.10;;;;;;5070776;28;20040;-58
2022/12/28 11:11:21;;;;;;;15.00;10.13;;;20.90;76.90;;;;;;5048659;28;19915;-60
2022/12/28 11:14:09;;;;;;;13.35;9.57;;;21.10;78.60;;;;;;5097627;28;20032;-59
2022/12/28 11:16:36;;;;;;;13.27;10.80;;;;;;;;;;5094917;28;20387;-61
2022/12/28 11:19:02;;;;;;;13.32;10.20;;;19.80;99.90;;;;;;5106217;28;20425;-57
2022/12/28 11:21:28;;;;;;;14.68;10.35;;;18.60;79.80;;;;;;5096261;28;20032;-61
2022/12/28 11:23:54;;;;;;;13.20;9.38;;;19.00;80.90;;;;;;5103252;28;20085;-63
2022/12/28 11:26:20;;;;;;;13.52;10.48;;;;;;;;;;5106987;28;20039;-58
2022/12/28 11:28:51;;;;;;;17.10;14.52;;;18.30;79.70;;;;;;5100258;28;20032;-55
2022/12/28 11:31:27;;;;;;;14.93;12.57;;;;;;;;;;5098940;28;20042;-62
2022/12/28 11:33:56;;;;;;;20.20;13.93;;;;;;;;;;5108834;28;20030;-61
2022/12/28 11:36:24;;;;;;;14.73;10.48;;;18.10;98.00;;;;;;5101142;28;20042;-64
2022/12/28 11:38:53;;;;;;;13.93;11.38;;;18.20;80.50;;;;;;5104998;28;20030;-61
2022/12/28 11:41:31;;;;;;;17.77;12.18;;;;;;;;;;5103931;28;20076;-60
2022/12/28 11:44:01;;;;;;;14.57;11.35;;;17.40;81.00;;;;;;5103928;28;20042;-61
2022/12/28 11:46:27;;;;;;;13.00;9.57;;;18.10;81.40;;;;;;5101008;28;20475;-58
2022/12/28 11:48:59;;;;;;;13.18;10.40;;;17.50;79.70;;;;;;5097137;28;20035;-57
2022/12/28 11:51:29;;;;;;;14.38;10.13;;;17.40;80.30;;;;;;5085512;28;20020;-63
2022/12/28 11:54:00;;;;;;;15.45;10.55;;;17.20;80.20;;;;;;5045601;28;20082;-60
2022/12/28 11:56:45;;;;;;;14.00;10.73;;;;;;;;;;5009613;28;20056;-61
2022/12/28 11:59:23;;;;;;;15.93;9.90;;;17.20;90.30;;;;;;5048027;28;20053;-60
2022/12/28 12:01:51;;;;;;;14.95;10.38;;;17.40;94.00;;;;;;5046333;28;20496;-62
2022/12/28 12:04:17;;;;;;;12.68;9.57;;;;;;;;;;5048054;28;20106;-62
2022/12/28 12:06:43;;;;;;;15.23;9.43;;;17.10;79.00;;;;;;5046203;28;20067;-58
2022/12/28 12:09:21;;;;;;;12.48;10.07;;;17.40;82.10;;;;;;5045424;28;20051;-59
2022/12/28 12:12:02;;;;;;;15.20;11.07;;;17.60;84.10;;;;;;5038650;28;20107;-62
2022/12/28 12:14:42;;;;;;;17.35;9.98;;;17.00;95.50;;;;;;5044717;28;20049;-58
2022/12/28 12:17:21;;;;;;;15.68;8.38;;;16.70;97.20;;;;;;5047578;28;20028;-63
2022/12/28 12:19:48;;;;;;;12.80;7.88;;;;;;;;;;5046539;28;20056;-58
2022/12/28 12:22:30;;;;;;;14.68;8.80;;;;;;;;;;5047026;28;20028;-56
2022/12/28 12:25:01;;;;;;;14.20;8.32;;;;;;;;;;5069754;28;20403;-58
2022/12/28 12:27:32;;;;;;;10.93;7.25;;;15.80;98.30;;;;;;5090321;28;20032;-59
2022/12/28 12:30:14;;;;;;;10.90;6.68;;;15.40;79.40;;;;;;5054586;28;20479;-62
2022/12/28 12:32:52;;;;;;;11.23;6.50;;;;;;;;;;5089880;28;20024;-60
2022/12/28 12:35:33;;;;;;;13.45;4.82;;;15.00;92.40;;;;;;5090071;28;20036;-60
2022/12/28 12:38:25;;;;;;;11.15;6.70;;;14.70;80.90;;;;;;5087761;28;20032;-56
2022/12/28 12:41:09;;;;;;;;;;;14.90;96.20;;;;;;5089242;28;20225;-58
2022/12/28 12:43:49;;;;;;;9.90;5.53;;;;;;;;;;5088661;28;19924;-59
2022/12/28 12:46:42;;;;;;;20.88;5.82;;;14.50;78.80;;;;;;5089720;28;20093;-60
2022/12/28 12:49:35;;;;;;;12.30;5.85;;;14.40;82.60;;;;;;5092194;28;20079;-63
2022/12/28 12:52:25;;;;;;;8.20;4.53;;;14.00;80.90;;;;;;5092576;28;20035;-59
2022/12/28 12:55:18;;;;;;;10.27;5.05;;;13.90;80.80;;;;;;5095298;28;20491;-60
2022/12/28 12:58:01;;;;;;;10.40;7.03;;;13.60;81.30;;;;;;5091775;28;20031;-61
2022/12/28 13:00:27;;;;;;;;;;;;;;;;;;5093744;28;20493;-57
2022/12/28 13:03:17;;;;;;;11.30;6.28;;;13.70;81.00;;;;;;5094734;28;19904;-56
2022/12/28 13:05:55;;;;;;;7.50;4.85;;;13.50;82.70;;;;;;5091155;28;20430;-56
2022/12/28 13:08:36;;;;;;;9.25;6.00;;;13.20;83.40;;;;;;5094912;28;20067;-60
2022/12/28 13:11:02;;;;;;;9.77;4.90;;;13.30;84.00;;;;;;5094485;28;20020;-60
2022/12/28 13:13:34;;;;;;;8.65;5.95;;;13.10;85.40;;;;;;5094811;28;20421;-57
2022/12/28 13:16:07;;;;;;;9.95;5.53;;;13.10;84.20;;;;;;5058374;28;20391;-60
2022/12/28 13:18:33;;;;;;;12.30;5.40;;;12.90;83.10;;;;;;5041164;28;20048;-60
2022/12/28 13:21:03;;;;;;;10.32;5.22;;;13.30;84.30;;;;;;5095029;28;20061;-48
2022/12/28 13:23:31;;;;;;;7.85;4.72;;;13.10;84.80;;;;;;5094328;28;20084;-55
2022/12/28 13:26:01;;;;;;;7.15;4.93;;;13.40;85.50;;;;;;5093943;28;20025;-55
2022/12/28 13:28:28;;;;;;;9.73;5.65;;;13.30;84.80;;;;;;5057890;28;20055;-55
2022/12/28 13:31:07;;;;;;;9.30;4.95;;;13.40;84.50;;;;;;5094367;28;20477;-55
2022/12/28 13:33:33;;;;;;;8.95;4.72;;;13.20;83.80;;;;;;5051256;28;20041;-55
2022/12/28 13:36:15;;;;;;;8.20;4.95;;;13.10;83.40;;;;;;5034328;28;20119;-55
2022/12/28 13:38:41;;;;;;;;;;;13.00;84.00;;;;;;5018900;28;20076;-54